首页
METAR-TAF:

METAR-TAF

机场 :

科斯雷, 密克罗尼西亚群岛

科斯雷國際機場

纬度: 05-21N, 经度: 162-57E, 海拔: 3米

当前天气观测

该预报发布于13小时和28分钟前的23:50 UTC
风速9节,风向东转东北
温度 31°C
湿度 66%
气压 1008 hPa
能見度: 16.1公里
少量云层高于2000英尺
散云层高于13000英尺
多云层高于30000英尺

METAR: PTSA 162350Z 06009KT 10SM FEW020 SCT130 BKN300 31/24 A2978 RMK LAST

时间: 00:18 (13:18 UTC)

预报

该预报发布于13小时和48分钟前的23:30 UTC
预报有效从17日的 00点(UTC)到 17日的 24点(UTC)
风速10节,风向东转东北
能見度: 10公里
散云层高于2000英尺

TAF: PTSA 162330Z 1700/1724 07010KT P6SM SCT020

超过4000个机场的气象观测和天气预报(METAR&TAF报告)。

可查询的气象台以黄色和红色小点在地图上表示。

将鼠标移到小点上方,可查看气象台名称。

然后点击查看天气观测和预报。

如需切换地图:点击带黑十字的绿色按钮放大地图;点击带横线的绿色按钮缩小地图;或者点击绿色箭头查看邻近地区的地图。


METAR-TAF: